Woody Acres, Texas
Current Conditions -  °F | °C
As of 1:53 AM on Saturday 20 Dec 2014 (Local Time) from KIAH Reporting Station
Overcast Overcast  
Wind Chill: 52°   Ceiling: 500
Heat Index: 52°   Visibility: 9mi
Dew Point: 50°   Wind: 10mph
Humidity: 93%   Direction: 360°N
Pressure: 30.14"   Gusts: NA
Location:  30.1192°N, 95.2824°W
Report Text: KIAH 200753Z 36009KT 9SM OVC005 11/10 A3014 RMK AO2 SLP206 T01110100
Loading
Personal Weather Stations






























Interactive Weather Map New forecast layout! Learn more

10-Day Weather Forecast

Advertisements
Track Severe Weather on mobile